createdAt,value
2017-11-05T00:00:40.165Z,0
2017-11-05T00:01:48.852Z,0
2017-11-05T00:02:58.208Z,0
2017-11-05T00:04:07.278Z,0
2017-11-05T00:05:16.962Z,0
2017-11-05T00:06:26.315Z,0
2017-11-05T00:07:36.009Z,0
2017-11-05T00:08:45.357Z,0
2017-11-05T00:09:54.718Z,0
2017-11-05T00:11:03.402Z,0
2017-11-05T00:12:12.429Z,0
2017-11-05T00:13:21.450Z,0
2017-11-05T00:14:30.478Z,0
2017-11-05T00:15:39.831Z,0
2017-11-05T00:16:49.187Z,0
2017-11-05T00:17:58.215Z,0
2017-11-05T00:19:07.902Z,0
2017-11-05T00:20:17.585Z,0
2017-11-05T00:21:26.949Z,0
2017-11-05T00:22:35.973Z,0
2017-11-05T00:23:44.665Z,0
2017-11-05T00:24:54.723Z,0
2017-11-05T00:26:03.744Z,0
2017-11-05T00:27:13.101Z,0
2017-11-05T00:28:22.124Z,0
2017-11-05T00:29:30.814Z,0
2017-11-05T00:30:39.836Z,0
2017-11-05T00:31:49.519Z,0
2017-11-05T00:32:58.540Z,0
2017-11-05T00:34:07.559Z,0
2017-11-05T00:35:16.930Z,0
2017-11-05T00:36:25.949Z,0
2017-11-05T00:37:35.641Z,0
2017-11-05T00:38:44.664Z,0
2017-11-05T00:39:54.023Z,0
2017-11-05T00:41:03.086Z,0
2017-11-05T00:42:11.741Z,0
2017-11-05T00:43:21.103Z,0
2017-11-05T00:44:30.119Z,0
2017-11-05T00:45:39.139Z,0
2017-11-05T00:46:48.491Z,0
2017-11-05T00:47:57.514Z,0
2017-11-05T00:49:06.535Z,0
2017-11-05T00:50:15.226Z,0
2017-11-05T00:51:24.583Z,0
2017-11-05T00:52:33.931Z,0
2017-11-05T00:53:43.284Z,0
2017-11-05T00:54:52.311Z,0
2017-11-05T00:56:01.331Z,0
2017-11-05T00:57:10.356Z,0
2017-11-05T00:58:19.709Z,0
2017-11-05T00:59:28.401Z,0
2017-11-05T01:00:37.090Z,0
2017-11-05T01:01:46.109Z,0
2017-11-05T01:02:55.460Z,0
2017-11-05T01:04:04.809Z,0
2017-11-05T01:05:13.829Z,0
2017-11-05T01:06:22.851Z,0
2017-11-05T01:07:32.207Z,0
2017-11-05T01:08:41.906Z,0
2017-11-05T01:09:51.258Z,0
2017-11-05T01:10:59.948Z,0
2017-11-05T01:12:08.984Z,0
2017-11-05T01:13:18.339Z,0
2017-11-05T01:14:27.368Z,0
2017-11-05T01:15:36.719Z,0
2017-11-05T01:16:45.408Z,0
2017-11-05T01:17:55.093Z,0
2017-11-05T01:19:03.784Z,0
2017-11-05T01:20:13.138Z,0
2017-11-05T01:21:22.159Z,0
2017-11-05T01:22:31.181Z,0
2017-11-05T01:23:40.568Z,0
2017-11-05T01:24:49.928Z,0
2017-11-05T01:25:59.625Z,0
2017-11-05T01:27:08.973Z,0
2017-11-05T01:28:17.996Z,0
2017-11-05T01:29:27.017Z,0
2017-11-05T01:30:36.760Z,0
2017-11-05T01:31:46.113Z,0
2017-11-05T01:32:55.138Z,0
2017-11-05T01:34:04.167Z,0
2017-11-05T01:35:13.197Z,0
2017-11-05T01:36:22.879Z,0
2017-11-05T01:37:31.568Z,0
2017-11-05T01:38:41.257Z,0
2017-11-05T01:39:50.279Z,0
2017-11-05T01:40:59.642Z,0
2017-11-05T01:42:08.666Z,0
2017-11-05T01:43:18.349Z,0
2017-11-05T01:44:28.038Z,0
2017-11-05T01:45:37.056Z,0
2017-11-05T01:46:45.744Z,0
2017-11-05T01:47:54.768Z,0
2017-11-05T01:49:04.124Z,0
2017-11-05T01:50:13.196Z,0
2017-11-05T01:51:22.550Z,0
2017-11-05T01:52:31.905Z,0
2017-11-05T01:53:41.256Z,0
2017-11-05T01:54:50.618Z,0
2017-11-05T01:56:00.303Z,0
2017-11-05T01:57:09.659Z,0
2017-11-05T01:58:19.014Z,0
2017-11-05T01:59:27.701Z,0
2017-11-05T02:00:36.719Z,0
2017-11-05T02:01:46.076Z,0
2017-11-05T02:02:55.431Z,0
2017-11-05T02:04:04.788Z,0
2017-11-05T02:05:14.473Z,0
2017-11-05T02:06:23.856Z,0
2017-11-05T02:07:32.880Z,0
2017-11-05T02:08:42.575Z,0
2017-11-05T02:09:51.600Z,0
2017-11-05T02:11:00.287Z,0
2017-11-05T02:12:09.637Z,0
2017-11-05T02:13:18.659Z,0
2017-11-05T02:14:28.019Z,0
2017-11-05T02:15:37.372Z,0
2017-11-05T02:16:46.407Z,0
2017-11-05T02:17:55.756Z,0
2017-11-05T02:19:04.798Z,0
2017-11-05T02:20:13.804Z,0
2017-11-05T02:21:22.871Z,0
2017-11-05T02:22:31.561Z,0
2017-11-05T02:23:40.912Z,0
2017-11-05T02:24:49.940Z,0
2017-11-05T02:25:59.625Z,0
2017-11-05T02:27:08.652Z,0
2017-11-05T02:28:17.998Z,0
2017-11-05T02:29:27.355Z,0
2017-11-05T02:30:36.383Z,0
2017-11-05T02:31:45.742Z,0
2017-11-05T02:32:55.428Z,0
2017-11-05T02:34:04.475Z,0
2017-11-05T02:35:13.834Z,0
2017-11-05T02:36:23.550Z,0
2017-11-05T02:37:32.574Z,0
2017-11-05T02:38:41.597Z,0
2017-11-05T02:39:50.615Z,0
2017-11-05T02:40:59.311Z,0
2017-11-05T02:42:08.002Z,0
2017-11-05T02:43:16.693Z,0
2017-11-05T02:44:25.712Z,0
2017-11-05T02:45:34.733Z,0
2017-11-05T02:46:43.753Z,0
2017-11-05T02:47:53.108Z,0
2017-11-05T02:49:02.485Z,0
2017-11-05T02:50:11.844Z,0
2017-11-05T02:51:21.204Z,0
2017-11-05T02:52:30.276Z,0
2017-11-05T02:53:39.956Z,0
2017-11-05T02:54:49.643Z,0
2017-11-05T02:55:58.662Z,0
2017-11-05T02:57:07.685Z,0
2017-11-05T02:58:17.050Z,0
2017-11-05T02:59:26.743Z,0
2017-11-05T03:00:35.438Z,0
2017-11-05T03:01:44.793Z,0
2017-11-05T03:02:53.486Z,0
2017-11-05T03:04:02.179Z,0
2017-11-05T03:05:11.199Z,0
2017-11-05T03:06:20.554Z,0
2017-11-05T03:07:29.241Z,0
2017-11-05T03:08:38.268Z,0
2017-11-05T03:09:47.962Z,0
2017-11-05T03:10:56.651Z,0
2017-11-05T03:12:05.339Z,0
2017-11-05T03:13:14.080Z,0
2017-11-05T03:14:22.770Z,0
2017-11-05T03:15:31.800Z,0
2017-11-05T03:16:41.483Z,0
2017-11-05T03:17:50.504Z,0
2017-11-05T03:19:00.191Z,0
2017-11-05T03:20:09.227Z,0
2017-11-05T03:21:18.248Z,0
2017-11-05T03:22:27.268Z,0
2017-11-05T03:23:37.334Z,0
2017-11-05T03:24:46.022Z,0
2017-11-05T03:25:55.042Z,0
2017-11-05T03:27:04.392Z,0
2017-11-05T03:28:13.413Z,0
2017-11-05T03:29:22.437Z,0
2017-11-05T03:30:31.792Z,0
2017-11-05T03:31:41.145Z,0
2017-11-05T03:32:50.167Z,0
2017-11-05T03:33:59.237Z,0
2017-11-05T03:35:08.923Z,0
2017-11-05T03:36:17.610Z,0
2017-11-05T03:37:26.637Z,0
2017-11-05T03:38:35.328Z,0
2017-11-05T03:39:44.688Z,0
2017-11-05T03:40:53.715Z,0
2017-11-05T03:42:02.736Z,0
2017-11-05T03:43:11.755Z,0
2017-11-05T03:44:20.776Z,0
2017-11-05T03:45:29.461Z,0
2017-11-05T03:46:38.150Z,0
2017-11-05T03:47:47.504Z,0
2017-11-05T03:48:56.864Z,0
2017-11-05T03:50:06.219Z,0
2017-11-05T03:51:15.568Z,0
2017-11-05T03:52:24.258Z,0
2017-11-05T03:53:33.609Z,0
2017-11-05T03:54:42.959Z,0
2017-11-05T03:55:51.977Z,0
2017-11-05T03:57:01.992Z,0
2017-11-05T03:58:10.684Z,0
2017-11-05T03:59:20.043Z,0
2017-11-05T04:00:29.065Z,0
2017-11-05T04:01:38.085Z,0
2017-11-05T04:02:47.109Z,0
2017-11-05T04:03:56.127Z,0
2017-11-05T04:05:05.195Z,0
2017-11-05T04:06:13.886Z,0
2017-11-05T04:07:22.909Z,0
2017-11-05T04:08:32.929Z,0
2017-11-05T04:09:41.954Z,0
2017-11-05T04:10:51.307Z,0
2017-11-05T04:12:00.333Z,0
2017-11-05T04:13:09.696Z,0
2017-11-05T04:14:19.060Z,0
2017-11-05T04:15:28.100Z,0
2017-11-05T04:16:37.119Z,0
2017-11-05T04:17:46.144Z,0
2017-11-05T04:18:55.838Z,0
2017-11-05T04:20:05.203Z,0
2017-11-05T04:21:14.564Z,0
2017-11-05T04:22:24.298Z,0
2017-11-05T04:23:33.983Z,0
2017-11-05T04:24:43.003Z,0
2017-11-05T04:25:52.023Z,0
2017-11-05T04:27:01.377Z,0
2017-11-05T04:28:10.727Z,0
2017-11-05T04:29:19.750Z,0
2017-11-05T04:30:28.442Z,0
2017-11-05T04:31:37.468Z,0
2017-11-05T04:32:47.158Z,0
2017-11-05T04:33:56.182Z,0
2017-11-05T04:35:05.209Z,0
2017-11-05T04:36:13.900Z,0
2017-11-05T04:37:23.588Z,0
2017-11-05T04:38:33.612Z,0
2017-11-05T04:39:42.638Z,0
2017-11-05T04:40:51.990Z,0
2017-11-05T04:42:01.010Z,0
2017-11-05T04:43:10.693Z,0
2017-11-05T04:44:20.049Z,0
2017-11-05T04:45:29.123Z,0
2017-11-05T04:46:38.817Z,0
2017-11-05T04:47:47.836Z,0
2017-11-05T04:48:57.190Z,0
2017-11-05T04:50:06.209Z,0
2017-11-05T04:51:14.897Z,0
2017-11-05T04:52:23.924Z,0
2017-11-05T04:53:33.619Z,0
2017-11-05T04:54:42.977Z,0
2017-11-05T04:55:52.331Z,0
2017-11-05T04:57:01.352Z,0
2017-11-05T04:58:10.054Z,0
2017-11-05T04:59:19.074Z,0
2017-11-05T05:00:28.423Z,0
2017-11-05T05:01:37.447Z,0
2017-11-05T05:02:46.466Z,0
2017-11-05T05:03:55.490Z,0
2017-11-05T05:05:04.882Z,0
2017-11-05T05:06:14.238Z,0
2017-11-05T05:07:23.263Z,0
2017-11-05T05:08:31.951Z,0
2017-11-05T05:09:40.970Z,0
2017-11-05T05:10:50.322Z,0
2017-11-05T05:11:59.679Z,0
2017-11-05T05:13:09.032Z,0
2017-11-05T05:14:18.385Z,0
2017-11-05T05:15:27.079Z,0
2017-11-05T05:16:37.099Z,0
2017-11-05T05:17:46.122Z,0
2017-11-05T05:18:54.812Z,0
2017-11-05T05:20:03.835Z,0
2017-11-05T05:21:12.854Z,0
2017-11-05T05:22:22.204Z,0
2017-11-05T05:23:31.558Z,0
2017-11-05T05:24:40.578Z,0
2017-11-05T05:25:49.272Z,0
2017-11-05T05:26:57.963Z,0
2017-11-05T05:28:07.000Z,0
2017-11-05T05:29:16.370Z,0
2017-11-05T05:30:25.061Z,0
2017-11-05T05:31:34.416Z,0
2017-11-05T05:32:43.439Z,0
2017-11-05T05:33:53.465Z,0
2017-11-05T05:35:02.487Z,0
2017-11-05T05:36:11.510Z,0
2017-11-05T05:37:20.196Z,0
2017-11-05T05:38:29.549Z,0
2017-11-05T05:39:38.903Z,0
2017-11-05T05:40:48.271Z,0
2017-11-05T05:41:56.964Z,0
2017-11-05T05:43:05.987Z,0
2017-11-05T05:44:14.680Z,0
2017-11-05T05:45:23.697Z,0
2017-11-05T05:46:32.723Z,0
2017-11-05T05:47:42.411Z,0
2017-11-05T05:48:51.433Z,0
2017-11-05T05:50:00.792Z,0
2017-11-05T05:51:09.823Z,0
2017-11-05T05:52:19.172Z,0
2017-11-05T05:53:28.874Z,0
2017-11-05T05:54:38.231Z,0
2017-11-05T05:55:47.252Z,0
2017-11-05T05:56:56.272Z,0
2017-11-05T05:58:05.636Z,0
2017-11-05T05:59:15.332Z,0
2017-11-05T06:00:24.351Z,0
2017-11-05T06:01:33.373Z,0
2017-11-05T06:02:42.756Z,0
2017-11-05T06:03:51.779Z,0
2017-11-05T06:05:01.133Z,0
2017-11-05T06:06:09.823Z,0
2017-11-05T06:07:19.510Z,0
2017-11-05T06:08:28.914Z,0
2017-11-05T06:09:37.936Z,0
2017-11-05T06:10:47.622Z,0
2017-11-05T06:11:56.643Z,0
2017-11-05T06:13:05.999Z,0
2017-11-05T06:14:14.688Z,0
2017-11-05T06:15:24.381Z,0
2017-11-05T06:16:33.401Z,0
2017-11-05T06:17:42.423Z,0
2017-11-05T06:18:51.778Z,0
2017-11-05T06:20:01.460Z,0
2017-11-05T06:21:10.486Z,0
2017-11-05T06:22:19.506Z,0
2017-11-05T06:23:28.856Z,0
2017-11-05T06:24:37.547Z,0
2017-11-05T06:25:46.242Z,0
2017-11-05T06:26:55.271Z,0
2017-11-05T06:28:04.300Z,0
2017-11-05T06:29:13.323Z,0
2017-11-05T06:30:22.673Z,4
2017-11-05T06:31:32.374Z,4
2017-11-05T06:32:41.395Z,4
2017-11-05T06:33:50.420Z,4
2017-11-05T06:34:59.778Z,4
2017-11-05T06:36:08.467Z,0
2017-11-05T06:37:18.152Z,0
2017-11-05T06:38:26.844Z,4
2017-11-05T06:39:35.919Z,4
2017-11-05T06:40:45.273Z,4
2017-11-05T06:41:53.962Z,4
2017-11-05T06:43:02.983Z,4
2017-11-05T06:44:12.007Z,4
2017-11-05T06:45:21.362Z,4
2017-11-05T06:46:31.058Z,4
2017-11-05T06:47:40.078Z,4
2017-11-05T06:48:49.102Z,8
2017-11-05T06:49:58.179Z,4
2017-11-05T06:51:07.202Z,8
2017-11-05T06:52:16.227Z,8
2017-11-05T06:53:24.922Z,8
2017-11-05T06:54:34.273Z,12
2017-11-05T06:55:43.625Z,12
2017-11-05T06:56:52.649Z,8
2017-11-05T06:58:01.673Z,8
2017-11-05T06:59:10.686Z,8
2017-11-05T07:00:20.048Z,8
2017-11-05T07:01:29.399Z,4
2017-11-05T07:02:38.090Z,4
2017-11-05T07:03:47.454Z,4
2017-11-05T07:04:56.136Z,4
2017-11-05T07:06:05.494Z,4
2017-11-05T07:07:14.185Z,4
2017-11-05T07:08:22.872Z,4
2017-11-05T07:09:32.225Z,4
2017-11-05T07:10:40.917Z,8
2017-11-05T07:11:50.279Z,4
2017-11-05T07:12:59.656Z,12
2017-11-05T07:14:08.672Z,8
2017-11-05T07:15:17.686Z,12
2017-11-05T07:16:27.044Z,12
2017-11-05T07:17:36.065Z,8
2017-11-05T07:18:45.419Z,8
2017-11-05T07:19:54.107Z,12
2017-11-05T07:21:03.459Z,8
2017-11-05T07:22:12.811Z,8
2017-11-05T07:23:21.841Z,8
2017-11-05T07:24:31.524Z,8
2017-11-05T07:25:40.878Z,8
2017-11-05T07:26:50.229Z,8
2017-11-05T07:27:59.585Z,8
2017-11-05T07:29:08.273Z,8
2017-11-05T07:30:17.626Z,8
2017-11-05T07:31:26.700Z,8
2017-11-05T07:32:35.393Z,20
2017-11-05T07:33:45.081Z,16
2017-11-05T07:34:54.768Z,16
2017-11-05T07:36:03.798Z,12
2017-11-05T07:37:13.163Z,16
2017-11-05T07:38:22.516Z,20
2017-11-05T07:39:32.196Z,20
2017-11-05T07:40:41.219Z,20
2017-11-05T07:41:50.239Z,28
2017-11-05T07:42:59.270Z,28
2017-11-05T07:44:08.284Z,40
2017-11-05T07:45:17.646Z,40
2017-11-05T07:46:27.000Z,36
2017-11-05T07:47:35.689Z,36
2017-11-05T07:48:45.046Z,32
2017-11-05T07:49:54.736Z,20
2017-11-05T07:51:04.094Z,20
2017-11-05T07:52:12.782Z,16
2017-11-05T07:53:21.806Z,32
2017-11-05T07:54:30.825Z,32
2017-11-05T07:55:39.847Z,32
2017-11-05T07:56:48.537Z,28
2017-11-05T07:57:57.618Z,44
2017-11-05T07:59:07.306Z,60
2017-11-05T08:00:16.670Z,48
2017-11-05T08:01:25.692Z,40
2017-11-05T08:02:34.383Z,56
2017-11-05T08:03:43.414Z,52
2017-11-05T08:04:52.767Z,76
2017-11-05T08:06:01.786Z,60
2017-11-05T08:07:11.136Z,68
2017-11-05T08:08:19.825Z,64
2017-11-05T08:09:28.849Z,52
2017-11-05T08:10:37.535Z,64
2017-11-05T08:11:46.889Z,52
2017-11-05T08:12:55.581Z,44
2017-11-05T08:14:04.270Z,52
2017-11-05T08:15:13.291Z,48
2017-11-05T08:16:22.311Z,68
2017-11-05T08:17:31.002Z,72
2017-11-05T08:18:39.692Z,72
2017-11-05T08:19:49.045Z,92
2017-11-05T08:20:58.066Z,76
2017-11-05T08:22:07.087Z,72
2017-11-05T08:23:15.777Z,80
2017-11-05T08:24:24.798Z,100
2017-11-05T08:25:33.821Z,108
2017-11-05T08:26:43.508Z,104
2017-11-05T08:27:53.199Z,120
2017-11-05T08:29:02.885Z,96
2017-11-05T08:30:11.576Z,104
2017-11-05T08:31:20.267Z,104
2017-11-05T08:32:30.279Z,120
2017-11-05T08:33:39.300Z,116
2017-11-05T08:34:48.319Z,144
2017-11-05T08:35:57.345Z,156
2017-11-05T08:37:06.697Z,132
2017-11-05T08:38:15.720Z,132
2017-11-05T08:39:24.747Z,120
2017-11-05T08:40:33.775Z,104
2017-11-05T08:41:43.136Z,116
2017-11-05T08:42:52.493Z,124
2017-11-05T08:44:01.519Z,104
2017-11-05T08:45:10.872Z,108
2017-11-05T08:46:20.554Z,136
2017-11-05T08:47:29.907Z,104
2017-11-05T08:48:39.270Z,92
2017-11-05T08:49:48.626Z,80
2017-11-05T08:50:57.328Z,112
2017-11-05T08:52:06.680Z,84
2017-11-05T08:53:16.368Z,64
2017-11-05T08:54:25.390Z,88
2017-11-05T08:55:34.415Z,88
2017-11-05T08:56:43.773Z,124
2017-11-05T08:57:53.464Z,124
2017-11-05T08:59:02.813Z,104
2017-11-05T09:00:11.500Z,108
2017-11-05T09:01:20.852Z,84
2017-11-05T09:02:29.875Z,116
2017-11-05T09:03:39.561Z,132
2017-11-05T09:04:48.925Z,160
2017-11-05T09:05:57.617Z,144
2017-11-05T09:07:06.309Z,128
2017-11-05T09:08:16.324Z,120
2017-11-05T09:09:25.346Z,92
2017-11-05T09:10:34.365Z,92
2017-11-05T09:11:43.717Z,120
2017-11-05T09:12:52.744Z,104
2017-11-05T09:14:01.760Z,128
2017-11-05T09:15:11.112Z,132
2017-11-05T09:16:20.472Z,136
2017-11-05T09:17:29.487Z,152
2017-11-05T09:18:38.844Z,160
2017-11-05T09:19:47.535Z,172
2017-11-05T09:20:56.554Z,172
2017-11-05T09:22:06.573Z,148
2017-11-05T09:23:15.596Z,156
2017-11-05T09:24:24.621Z,96
2017-11-05T09:25:33.650Z,64
2017-11-05T09:26:43.339Z,68
2017-11-05T09:27:52.028Z,68
2017-11-05T09:29:01.382Z,92
2017-11-05T09:30:10.427Z,92
2017-11-05T09:31:19.441Z,84
2017-11-05T09:32:28.463Z,128
2017-11-05T09:33:37.486Z,156
2017-11-05T09:34:47.173Z,168
2017-11-05T09:35:56.197Z,176
2017-11-05T09:37:05.560Z,180
2017-11-05T09:38:14.583Z,184
2017-11-05T09:39:23.938Z,184
2017-11-05T09:40:33.294Z,188
2017-11-05T09:41:42.653Z,192
2017-11-05T09:42:52.018Z,196
2017-11-05T09:44:01.045Z,192
2017-11-05T09:45:10.067Z,180
2017-11-05T09:46:19.437Z,172
2017-11-05T09:47:28.461Z,164
2017-11-05T09:48:37.482Z,172
2017-11-05T09:49:46.832Z,172
2017-11-05T09:50:55.852Z,168
2017-11-05T09:52:05.553Z,168
2017-11-05T09:53:15.249Z,168
2017-11-05T09:54:24.605Z,168
2017-11-05T09:55:34.297Z,168
2017-11-05T09:56:42.995Z,168
2017-11-05T09:57:52.675Z,172
2017-11-05T09:59:01.708Z,180
2017-11-05T10:00:11.059Z,192
2017-11-05T10:01:20.079Z,216
2017-11-05T10:02:29.104Z,224
2017-11-05T10:03:38.126Z,224
2017-11-05T10:04:46.819Z,228
2017-11-05T10:05:56.178Z,244
2017-11-05T10:07:05.198Z,272
2017-11-05T10:08:14.226Z,300
2017-11-05T10:09:23.576Z,320
2017-11-05T10:10:32.598Z,312
2017-11-05T10:11:41.287Z,312
2017-11-05T10:12:50.653Z,312
2017-11-05T10:13:59.678Z,308
2017-11-05T10:15:09.035Z,320
2017-11-05T10:16:18.459Z,340
2017-11-05T10:17:27.812Z,352
2017-11-05T10:18:36.841Z,360
2017-11-05T10:19:46.194Z,388
2017-11-05T10:20:54.886Z,440
2017-11-05T10:22:03.909Z,464
2017-11-05T10:23:12.930Z,440
2017-11-05T10:24:22.284Z,440
2017-11-05T10:25:31.666Z,444
2017-11-05T10:26:41.357Z,444
2017-11-05T10:27:51.056Z,468
2017-11-05T10:29:00.467Z,472
2017-11-05T10:30:09.827Z,520
2017-11-05T10:31:19.184Z,580
2017-11-05T10:32:28.205Z,636
2017-11-05T10:33:37.908Z,668
2017-11-05T10:34:46.598Z,680
2017-11-05T10:35:55.622Z,568
2017-11-05T10:37:04.979Z,480
2017-11-05T10:38:14.005Z,452
2017-11-05T10:39:23.035Z,412
2017-11-05T10:40:32.059Z,472
2017-11-05T10:41:41.752Z,552
2017-11-05T10:42:50.778Z,568
2017-11-05T10:43:59.475Z,636
2017-11-05T10:45:08.848Z,684
2017-11-05T10:46:17.872Z,700
2017-11-05T10:47:27.232Z,684
2017-11-05T10:48:35.927Z,672
2017-11-05T10:49:44.951Z,704
2017-11-05T10:50:53.977Z,724
2017-11-05T10:52:03.692Z,720
2017-11-05T10:53:13.056Z,696
2017-11-05T10:54:22.414Z,760
2017-11-05T10:55:31.440Z,632
2017-11-05T10:56:40.468Z,492
2017-11-05T10:57:49.827Z,508
2017-11-05T10:58:58.522Z,524
2017-11-05T11:00:07.549Z,628
2017-11-05T11:01:16.244Z,572
2017-11-05T11:02:25.605Z,560
2017-11-05T11:03:34.297Z,592
2017-11-05T11:04:43.651Z,528
2017-11-05T11:05:52.676Z,480
2017-11-05T11:07:02.032Z,452
2017-11-05T11:08:11.053Z,400
2017-11-05T11:09:20.412Z,368
2017-11-05T11:10:29.771Z,328
2017-11-05T11:11:38.801Z,340
2017-11-05T11:12:47.838Z,348
2017-11-05T11:13:56.867Z,376
2017-11-05T11:15:06.567Z,336
2017-11-05T11:16:16.252Z,236
2017-11-05T11:17:25.608Z,168
2017-11-05T11:18:34.635Z,120
2017-11-05T11:19:43.998Z,144
2017-11-05T11:20:53.021Z,180
2017-11-05T11:22:02.379Z,240
2017-11-05T11:23:12.068Z,236
2017-11-05T11:24:20.759Z,308
2017-11-05T11:25:29.786Z,272
2017-11-05T11:26:38.476Z,268
2017-11-05T11:27:47.833Z,484
2017-11-05T11:28:56.864Z,368
2017-11-05T11:30:05.555Z,628
2017-11-05T11:31:14.632Z,464
2017-11-05T11:32:23.991Z,392
2017-11-05T11:33:33.014Z,228
2017-11-05T11:34:42.372Z,224
2017-11-05T11:35:52.063Z,436
2017-11-05T11:37:00.757Z,600
2017-11-05T11:38:10.125Z,524
2017-11-05T11:39:18.821Z,492
2017-11-05T11:40:28.516Z,620
2017-11-05T11:41:37.882Z,628
2017-11-05T11:42:46.577Z,760
2017-11-05T11:43:55.605Z,808
2017-11-05T11:45:04.627Z,676
2017-11-05T11:46:13.651Z,480
2017-11-05T11:47:22.683Z,512
2017-11-05T11:48:32.039Z,600
2017-11-05T11:49:41.059Z,648
2017-11-05T11:50:50.413Z,560
2017-11-05T11:51:59.102Z,292
2017-11-05T11:53:08.791Z,144
2017-11-05T11:54:18.477Z,104
2017-11-05T11:55:27.500Z,184
2017-11-05T11:56:36.857Z,264
2017-11-05T11:57:46.216Z,416
2017-11-05T11:58:55.570Z,352
2017-11-05T12:00:04.595Z,372
2017-11-05T12:01:13.948Z,520
2017-11-05T12:02:23.302Z,416
2017-11-05T12:03:32.988Z,336
2017-11-05T12:04:42.679Z,372
2017-11-05T12:05:51.703Z,416
2017-11-05T12:07:00.394Z,652
2017-11-05T12:08:09.083Z,848
2017-11-05T12:09:18.119Z,676
2017-11-05T12:10:26.811Z,568
2017-11-05T12:11:35.831Z,544
2017-11-05T12:12:44.858Z,504
2017-11-05T12:13:53.553Z,520
2017-11-05T12:15:03.241Z,424
2017-11-05T12:16:12.601Z,448
2017-11-05T12:17:21.627Z,852
2017-11-05T12:18:30.645Z,836
2017-11-05T12:19:39.667Z,848
2017-11-05T12:20:48.690Z,752
2017-11-05T12:21:57.381Z,904
2017-11-05T12:23:06.119Z,876
2017-11-05T12:24:15.143Z,1040
2017-11-05T12:25:24.500Z,1076
2017-11-05T12:26:33.527Z,1036
2017-11-05T12:27:42.878Z,1112
2017-11-05T12:28:51.913Z,988
2017-11-05T12:30:00.933Z,720
2017-11-05T12:31:09.957Z,500
2017-11-05T12:32:18.642Z,776
2017-11-05T12:33:27.664Z,756
2017-11-05T12:34:37.021Z,788
2017-11-05T12:35:45.714Z,880
2017-11-05T12:36:54.407Z,540
2017-11-05T12:38:03.435Z,704
2017-11-05T12:39:13.121Z,872
2017-11-05T12:40:22.474Z,1228
2017-11-05T12:41:31.497Z,952
2017-11-05T12:42:40.525Z,692
2017-11-05T12:43:49.878Z,800
2017-11-05T12:44:58.898Z,616
2017-11-05T12:46:08.627Z,732
2017-11-05T12:47:17.654Z,1212
2017-11-05T12:48:27.011Z,1200
2017-11-05T12:49:36.389Z,1056
2017-11-05T12:50:45.744Z,1068
2017-11-05T12:51:54.433Z,792
2017-11-05T12:53:03.464Z,824
2017-11-05T12:54:12.156Z,880
2017-11-05T12:55:20.845Z,896
2017-11-05T12:56:30.203Z,896
2017-11-05T12:57:39.898Z,920
2017-11-05T12:58:48.916Z,912
2017-11-05T12:59:58.280Z,928
2017-11-05T13:01:07.980Z,900
2017-11-05T13:02:16.673Z,648
2017-11-05T13:03:26.692Z,576
2017-11-05T13:04:35.381Z,644
2017-11-05T13:05:45.080Z,792
2017-11-05T13:06:54.456Z,852
2017-11-05T13:08:03.810Z,768
2017-11-05T13:09:12.842Z,668
2017-11-05T13:10:21.865Z,676
2017-11-05T13:11:30.895Z,668
2017-11-05T13:12:40.248Z,692
2017-11-05T13:13:49.274Z,784
2017-11-05T13:14:58.332Z,832
2017-11-05T13:16:07.352Z,776
2017-11-05T13:17:16.706Z,688
2017-11-05T13:18:26.062Z,640
2017-11-05T13:19:34.754Z,604
2017-11-05T13:20:43.778Z,664
2017-11-05T13:21:53.137Z,676
2017-11-05T13:23:02.498Z,688
2017-11-05T13:24:11.523Z,544
2017-11-05T13:25:20.882Z,520
2017-11-05T13:26:29.574Z,552
2017-11-05T13:27:38.938Z,656
2017-11-05T13:28:48.636Z,692
2017-11-05T13:29:57.345Z,720
2017-11-05T13:31:07.049Z,748
2017-11-05T13:32:16.072Z,748
2017-11-05T13:33:25.105Z,672
2017-11-05T13:34:34.132Z,752
2017-11-05T13:35:43.155Z,732
2017-11-05T13:36:52.177Z,720
2017-11-05T13:38:01.197Z,688
2017-11-05T13:39:10.219Z,732
2017-11-05T13:40:19.244Z,732
2017-11-05T13:41:28.928Z,748
2017-11-05T13:42:37.618Z,736
2017-11-05T13:43:47.647Z,732
2017-11-05T13:44:56.670Z,716
2017-11-05T13:46:05.364Z,696
2017-11-05T13:47:14.051Z,704
2017-11-05T13:48:23.402Z,696
2017-11-05T13:49:32.763Z,664
2017-11-05T13:50:41.782Z,620
2017-11-05T13:51:50.474Z,548
2017-11-05T13:52:59.827Z,436
2017-11-05T13:54:08.523Z,360
2017-11-05T13:55:17.540Z,316
2017-11-05T13:56:26.893Z,280
2017-11-05T13:57:36.244Z,240
2017-11-05T13:58:45.268Z,200
2017-11-05T13:59:54.622Z,168
2017-11-05T14:01:03.645Z,144
2017-11-05T14:02:13.004Z,128
2017-11-05T14:03:22.360Z,108
2017-11-05T14:04:32.045Z,100
2017-11-05T14:05:41.066Z,96
2017-11-05T14:06:50.416Z,100
2017-11-05T14:07:59.108Z,88
2017-11-05T14:09:08.128Z,88
2017-11-05T14:10:16.822Z,92
2017-11-05T14:11:25.509Z,148
2017-11-05T14:12:34.865Z,244
2017-11-05T14:13:44.220Z,324
2017-11-05T14:14:53.575Z,404
2017-11-05T14:16:02.604Z,476
2017-11-05T14:17:11.634Z,508
2017-11-05T14:18:21.331Z,524
2017-11-05T14:19:31.019Z,528
2017-11-05T14:20:40.386Z,532
2017-11-05T14:21:49.730Z,504
2017-11-05T14:22:59.412Z,500
2017-11-05T14:24:08.765Z,484
2017-11-05T14:25:17.793Z,464
2017-11-05T14:26:27.145Z,440
2017-11-05T14:27:36.165Z,424
2017-11-05T14:28:45.186Z,428
2017-11-05T14:29:54.212Z,460
2017-11-05T14:31:03.903Z,472
2017-11-05T14:32:13.258Z,448
2017-11-05T14:33:21.958Z,436
2017-11-05T14:34:31.320Z,416
2017-11-05T14:35:40.344Z,404
2017-11-05T14:36:49.371Z,396
2017-11-05T14:37:58.062Z,372
2017-11-05T14:39:07.091Z,332
2017-11-05T14:40:16.453Z,336
2017-11-05T14:41:26.477Z,340
2017-11-05T14:42:35.497Z,348
2017-11-05T14:43:44.519Z,348
2017-11-05T14:44:54.201Z,344
2017-11-05T14:46:03.222Z,332
2017-11-05T14:47:11.915Z,324
2017-11-05T14:48:20.606Z,316
2017-11-05T14:49:29.629Z,308
2017-11-05T14:50:38.656Z,296
2017-11-05T14:51:47.347Z,276
2017-11-05T14:52:56.706Z,256
2017-11-05T14:54:05.728Z,244
2017-11-05T14:55:14.752Z,240
2017-11-05T14:56:24.104Z,240
2017-11-05T14:57:33.132Z,240
2017-11-05T14:58:42.150Z,252
2017-11-05T14:59:51.171Z,252
2017-11-05T15:01:00.864Z,248
2017-11-05T15:02:10.220Z,236
2017-11-05T15:03:19.580Z,228
2017-11-05T15:04:28.605Z,180
2017-11-05T15:05:37.293Z,180
2017-11-05T15:06:46.984Z,164
2017-11-05T15:07:56.010Z,148
2017-11-05T15:09:05.037Z,120
2017-11-05T15:10:14.725Z,84
2017-11-05T15:11:23.750Z,56
2017-11-05T15:12:33.097Z,40
2017-11-05T15:13:42.454Z,16
2017-11-05T15:14:51.809Z,8
2017-11-05T15:16:00.499Z,4
2017-11-05T15:17:09.189Z,8
2017-11-05T15:18:18.871Z,16
2017-11-05T15:19:28.889Z,20
2017-11-05T15:20:37.581Z,16
2017-11-05T15:21:46.604Z,12
2017-11-05T15:22:55.293Z,12
2017-11-05T15:24:04.666Z,12
2017-11-05T15:25:13.359Z,16
2017-11-05T15:26:22.386Z,16
2017-11-05T15:27:31.737Z,16
2017-11-05T15:28:40.426Z,16
2017-11-05T15:29:49.445Z,16
2017-11-05T15:30:58.803Z,16
2017-11-05T15:32:08.157Z,12
2017-11-05T15:33:17.516Z,16
2017-11-05T15:34:26.871Z,16
2017-11-05T15:35:35.565Z,16
2017-11-05T15:36:44.585Z,16
2017-11-05T15:37:53.938Z,20
2017-11-05T15:39:02.970Z,28
2017-11-05T15:40:12.657Z,32
2017-11-05T15:41:22.210Z,32
2017-11-05T15:42:31.237Z,28
2017-11-05T15:43:40.256Z,28
2017-11-05T15:44:49.957Z,24
2017-11-05T15:45:58.634Z,24
2017-11-05T15:47:07.330Z,24
2017-11-05T15:48:16.355Z,24
2017-11-05T15:49:25.720Z,24
2017-11-05T15:50:34.744Z,24
2017-11-05T15:51:43.439Z,20
2017-11-05T15:52:53.120Z,16
2017-11-05T15:54:02.145Z,16
2017-11-05T15:55:11.167Z,12
2017-11-05T15:56:20.862Z,16
2017-11-05T15:57:29.886Z,12
2017-11-05T15:58:39.239Z,12
2017-11-05T15:59:47.933Z,8
2017-11-05T16:00:56.623Z,8
2017-11-05T16:02:05.644Z,4
2017-11-05T16:03:15.339Z,8
2017-11-05T16:04:25.035Z,4
2017-11-05T16:05:33.723Z,4
2017-11-05T16:06:42.412Z,0
2017-11-05T16:07:51.438Z,4
2017-11-05T16:09:00.456Z,4
2017-11-05T16:10:09.813Z,0
2017-11-05T16:11:19.164Z,4
2017-11-05T16:12:28.189Z,0
2017-11-05T16:13:37.541Z,0
2017-11-05T16:14:46.563Z,0
2017-11-05T16:15:55.914Z,0
2017-11-05T16:17:05.271Z,0
2017-11-05T16:18:14.296Z,0
2017-11-05T16:19:23.324Z,0
2017-11-05T16:20:32.676Z,0
2017-11-05T16:21:41.368Z,0
2017-11-05T16:22:50.057Z,0
2017-11-05T16:23:59.076Z,0
2017-11-05T16:25:08.105Z,0
2017-11-05T16:26:17.491Z,0
2017-11-05T16:27:26.878Z,0
2017-11-05T16:28:36.232Z,0
2017-11-05T16:29:45.253Z,0